Inicio METAR Ruta Wind Satelite

Informe Meteorológico

Fecha: 2024/06/18 19:36:15 Local
2024.06.19 00:36 UTC


Operación:VFR
SKRG 190000Z 31004KT 9999 VCSH SCT015TCU SCT060 15/14 Q1024 TEMPO DZ RMK TCUVCSH/S/N =

SKRG 182300Z 12006KT 090V180 9999 VCSH SCT013 SCT017CB 15/14 Q1023 RETS TEMPO RA RMK CB VCSH/E/N
SKRG 182200Z 21005KT 210V320 9999 TS VCSH SCT013 SCT017CB 15/14 Q1022 TEMPO FM2220 RA RMK CB VCSH/SW/N
SKRG 182100Z 23012KT 130V230 9999 4000S TS VCSH BKN013 SCT017CB 17/12 Q1022 RETSRA TEMPO FM2120 5000 RA RMK CB VCSH/S/NW
SKRG 182015Z 02013KT 9999 TSRA SCT013TCU SCT017CB 20/15 Q1021 TEMPO FM2040 RA
SKRG 182000Z 02005KT 9999 TS VCSH SCT017TCU SCT022CB 23/12 Q1021 TEMPO 5000 TSRA BKN013CB RMK CB VCSH/S/N

2024/06/18 18:42
TAF SKRG 181630Z 1818/1918 09010KT 9999 SCT020
TEMPO 1819/1823 TS SCT020CB
BECMG 1900/1902 VRB02KT
TEMPO 1903/1907 5000 RA BKN010
TEMPO 1908/1912 4000 BCFG RA BKN005
BECMG 1913/1915 12010KT TX22/1819Z TN14/1911Z